sensor_id;sensor_type;location;lat;lon;timestamp;P1;durP1;ratioP1;P2;durP2;ratioP2
16468;SDS011;8345;50.902;6.956;2022-10-16T00:00:06;1.67;;;1.57;;
16468;SDS011;8345;50.902;6.956;2022-10-16T00:02:33;3.00;;;1.80;;
16468;SDS011;8345;50.902;6.956;2022-10-16T00:05:00;1.90;;;1.80;;
16468;SDS011;8345;50.902;6.956;2022-10-16T00:07:28;1.60;;;1.50;;
16468;SDS011;8345;50.902;6.956;2022-10-16T00:09:55;1.70;;;1.60;;
16468;SDS011;8345;50.902;6.956;2022-10-16T00:12:22;1.63;;;1.50;;
16468;SDS011;8345;50.902;6.956;2022-10-16T00:14:49;2.57;;;1.77;;
16468;SDS011;8345;50.902;6.956;2022-10-16T00:17:18;1.77;;;1.53;;
16468;SDS011;8345;50.902;6.956;2022-10-16T00:19:45;2.70;;;2.50;;
16468;SDS011;8345;50.902;6.956;2022-10-16T00:22:13;4.03;;;2.57;;
16468;SDS011;8345;50.902;6.956;2022-10-16T00:24:40;1.60;;;1.50;;
16468;SDS011;8345;50.902;6.956;2022-10-16T00:27:07;2.70;;;1.90;;
16468;SDS011;8345;50.902;6.956;2022-10-16T00:29:34;2.57;;;1.70;;
16468;SDS011;8345;50.902;6.956;2022-10-16T00:32:02;3.07;;;1.77;;
16468;SDS011;8345;50.902;6.956;2022-10-16T00:34:31;3.90;;;1.60;;
16468;SDS011;8345;50.902;6.956;2022-10-16T00:36:58;1.70;;;1.60;;
16468;SDS011;8345;50.902;6.956;2022-10-16T00:39:25;3.63;;;1.60;;
16468;SDS011;8345;50.902;6.956;2022-10-16T00:41:53;2.03;;;1.83;;
16468;SDS011;8345;50.902;6.956;2022-10-16T00:47:07;2.00;;;1.30;;
16468;SDS011;8345;50.902;6.956;2022-10-16T00:49:36;1.77;;;1.40;;
16468;SDS011;8345;50.902;6.956;2022-10-16T00:52:04;2.50;;;1.27;;
16468;SDS011;8345;50.902;6.956;2022-10-16T00:54:32;2.47;;;1.67;;
16468;SDS011;8345;50.902;6.956;2022-10-16T00:57:01;2.87;;;1.33;;
16468;SDS011;8345;50.902;6.956;2022-10-16T00:59:29;1.10;;;1.00;;
16468;SDS011;8345;50.902;6.956;2022-10-16T01:01:56;1.87;;;1.13;;
16468;SDS011;8345;50.902;6.956;2022-10-16T01:04:24;1.23;;;1.10;;
16468;SDS011;8345;50.902;6.956;2022-10-16T01:06:54;2.83;;;1.70;;
16468;SDS011;8345;50.902;6.956;2022-10-16T01:09:25;2.20;;;1.20;;
16468;SDS011;8345;50.902;6.956;2022-10-16T01:11:57;3.10;;;1.50;;
16468;SDS011;8345;50.902;6.956;2022-10-16T01:14:31;1.07;;;1.07;;
16468;SDS011;8345;50.902;6.956;2022-10-16T01:17:00;1.20;;;1.10;;
16468;SDS011;8345;50.902;6.956;2022-10-16T01:19:36;1.67;;;1.30;;
16468;SDS011;8345;50.902;6.956;2022-10-16T01:22:09;1.47;;;1.20;;
16468;SDS011;8345;50.902;6.956;2022-10-16T01:24:38;1.83;;;1.40;;
16468;SDS011;8345;50.902;6.956;2022-10-16T01:27:11;1.50;;;1.40;;
16468;SDS011;8345;50.902;6.956;2022-10-16T01:29:40;2.07;;;1.80;;
16468;SDS011;8345;50.902;6.956;2022-10-16T01:32:10;2.37;;;1.40;;
16468;SDS011;8345;50.902;6.956;2022-10-16T01:34:41;2.67;;;1.40;;
16468;SDS011;8345;50.902;6.956;2022-10-16T01:37:12;1.63;;;1.30;;
16468;SDS011;8345;50.902;6.956;2022-10-16T01:39:39;3.00;;;1.40;;
16468;SDS011;8345;50.902;6.956;2022-10-16T01:42:08;1.20;;;1.10;;
16468;SDS011;8345;50.902;6.956;2022-10-16T01:44:37;1.30;;;1.20;;
16468;SDS011;8345;50.902;6.956;2022-10-16T01:47:05;1.67;;;1.37;;
16468;SDS011;8345;50.902;6.956;2022-10-16T01:49:36;1.50;;;1.40;;
16468;SDS011;8345;50.902;6.956;2022-10-16T01:52:05;1.60;;;1.50;;
16468;SDS011;8345;50.902;6.956;2022-10-16T01:54:33;1.30;;;1.20;;
16468;SDS011;8345;50.902;6.956;2022-10-16T01:57:02;1.50;;;1.40;;
16468;SDS011;8345;50.902;6.956;2022-10-16T01:59:31;2.23;;;1.43;;
16468;SDS011;8345;50.902;6.956;2022-10-16T02:02:01;2.83;;;1.53;;
16468;SDS011;8345;50.902;6.956;2022-10-16T02:04:31;1.40;;;1.30;;
16468;SDS011;8345;50.902;6.956;2022-10-16T02:07:00;2.23;;;1.57;;
16468;SDS011;8345;50.902;6.956;2022-10-16T02:09:27;3.00;;;1.60;;
16468;SDS011;8345;50.902;6.956;2022-10-16T02:11:55;4.13;;;1.47;;
16468;SDS011;8345;50.902;6.956;2022-10-16T02:14:23;1.90;;;1.50;;
16468;SDS011;8345;50.902;6.956;2022-10-16T02:16:51;1.77;;;1.63;;
16468;SDS011;8345;50.902;6.956;2022-10-16T02:19:19;2.27;;;1.30;;
16468;SDS011;8345;50.902;6.956;2022-10-16T02:21:48;1.50;;;1.37;;
16468;SDS011;8345;50.902;6.956;2022-10-16T02:24:17;2.23;;;1.23;;
16468;SDS011;8345;50.902;6.956;2022-10-16T02:26:50;3.50;;;1.63;;
16468;SDS011;8345;50.902;6.956;2022-10-16T02:29:19;1.30;;;1.20;;
16468;SDS011;8345;50.902;6.956;2022-10-16T02:31:49;1.30;;;1.20;;
16468;SDS011;8345;50.902;6.956;2022-10-16T02:34:17;1.60;;;1.50;;
16468;SDS011;8345;50.902;6.956;2022-10-16T02:36:47;2.10;;;1.37;;
16468;SDS011;8345;50.902;6.956;2022-10-16T02:39:15;1.40;;;1.30;;
16468;SDS011;8345;50.902;6.956;2022-10-16T02:41:43;1.33;;;1.23;;
16468;SDS011;8345;50.902;6.956;2022-10-16T02:44:10;1.30;;;1.20;;
16468;SDS011;8345;50.902;6.956;2022-10-16T02:46:37;1.47;;;1.37;;
16468;SDS011;8345;50.902;6.956;2022-10-16T02:49:05;1.27;;;1.20;;
16468;SDS011;8345;50.902;6.956;2022-10-16T02:51:32;2.77;;;1.27;;
16468;SDS011;8345;50.902;6.956;2022-10-16T02:54:01;1.40;;;1.30;;
16468;SDS011;8345;50.902;6.956;2022-10-16T02:56:28;1.23;;;1.03;;
16468;SDS011;8345;50.902;6.956;2022-10-16T02:58:56;1.10;;;1.00;;
16468;SDS011;8345;50.902;6.956;2022-10-16T03:01:23;1.80;;;1.17;;
16468;SDS011;8345;50.902;6.956;2022-10-16T03:03:50;1.30;;;1.20;;
16468;SDS011;8345;50.902;6.956;2022-10-16T03:06:17;1.10;;;1.00;;
16468;SDS011;8345;50.902;6.956;2022-10-16T03:08:44;1.00;;;1.00;;
16468;SDS011;8345;50.902;6.956;2022-10-16T03:11:13;1.00;;;1.00;;
16468;SDS011;8345;50.902;6.956;2022-10-16T03:13:40;1.20;;;1.10;;
16468;SDS011;8345;50.902;6.956;2022-10-16T03:16:07;2.70;;;1.10;;
16468;SDS011;8345;50.902;6.956;2022-10-16T03:18:35;1.53;;;1.20;;
16468;SDS011;8345;50.902;6.956;2022-10-16T03:21:02;1.10;;;1.00;;
16468;SDS011;8345;50.902;6.956;2022-10-16T03:23:29;1.87;;;1.20;;
16468;SDS011;8345;50.902;6.956;2022-10-16T03:25:56;1.10;;;0.90;;
16468;SDS011;8345;50.902;6.956;2022-10-16T03:28:25;1.50;;;1.40;;
16468;SDS011;8345;50.902;6.956;2022-10-16T03:30:52;1.93;;;1.20;;
16468;SDS011;8345;50.902;6.956;2022-10-16T03:33:19;1.57;;;1.23;;
16468;SDS011;8345;50.902;6.956;2022-10-16T03:35:50;1.00;;;0.90;;
16468;SDS011;8345;50.902;6.956;2022-10-16T03:38:18;1.90;;;1.00;;
16468;SDS011;8345;50.902;6.956;2022-10-16T03:40:45;2.13;;;0.90;;
16468;SDS011;8345;50.902;6.956;2022-10-16T03:43:12;1.17;;;1.07;;
16468;SDS011;8345;50.902;6.956;2022-10-16T03:45:41;1.47;;;1.17;;
16468;SDS011;8345;50.902;6.956;2022-10-16T03:48:10;2.50;;;1.40;;
16468;SDS011;8345;50.902;6.956;2022-10-16T03:50:37;1.20;;;1.10;;
16468;SDS011;8345;50.902;6.956;2022-10-16T03:53:05;1.20;;;1.10;;
16468;SDS011;8345;50.902;6.956;2022-10-16T03:55:32;2.23;;;1.20;;
16468;SDS011;8345;50.902;6.956;2022-10-16T03:57:59;1.80;;;1.17;;
16468;SDS011;8345;50.902;6.956;2022-10-16T04:00:27;3.20;;;1.50;;
16468;SDS011;8345;50.902;6.956;2022-10-16T04:02:55;2.00;;;1.30;;
16468;SDS011;8345;50.902;6.956;2022-10-16T04:05:23;2.00;;;1.10;;
16468;SDS011;8345;50.902;6.956;2022-10-16T04:07:50;2.70;;;1.40;;
16468;SDS011;8345;50.902;6.956;2022-10-16T04:10:17;3.70;;;1.87;;
16468;SDS011;8345;50.902;6.956;2022-10-16T04:12:45;1.40;;;1.30;;
16468;SDS011;8345;50.902;6.956;2022-10-16T04:15:12;1.43;;;1.33;;
16468;SDS011;8345;50.902;6.956;2022-10-16T04:17:39;1.63;;;1.43;;
16468;SDS011;8345;50.902;6.956;2022-10-16T04:20:08;4.33;;;2.03;;
16468;SDS011;8345;50.902;6.956;2022-10-16T04:22:35;1.50;;;1.13;;
16468;SDS011;8345;50.902;6.956;2022-10-16T04:25:02;1.53;;;1.27;;
16468;SDS011;8345;50.902;6.956;2022-10-16T04:27:30;4.47;;;1.27;;
16468;SDS011;8345;50.902;6.956;2022-10-16T04:29:57;1.50;;;1.10;;
16468;SDS011;8345;50.902;6.956;2022-10-16T04:32:24;1.83;;;1.23;;
16468;SDS011;8345;50.902;6.956;2022-10-16T04:34:52;1.63;;;1.07;;
16468;SDS011;8345;50.902;6.956;2022-10-16T04:37:22;1.63;;;1.50;;
16468;SDS011;8345;50.902;6.956;2022-10-16T04:39:49;5.53;;;2.00;;
16468;SDS011;8345;50.902;6.956;2022-10-16T04:42:16;3.23;;;1.40;;
16468;SDS011;8345;50.902;6.956;2022-10-16T04:44:44;2.47;;;1.10;;
16468;SDS011;8345;50.902;6.956;2022-10-16T04:47:11;1.20;;;1.10;;
16468;SDS011;8345;50.902;6.956;2022-10-16T04:49:38;1.53;;;1.07;;
16468;SDS011;8345;50.902;6.956;2022-10-16T04:52:05;1.10;;;1.10;;
16468;SDS011;8345;50.902;6.956;2022-10-16T04:54:35;1.80;;;1.10;;
16468;SDS011;8345;50.902;6.956;2022-10-16T04:57:02;2.13;;;1.20;;
16468;SDS011;8345;50.902;6.956;2022-10-16T04:59:30;1.80;;;1.60;;
16468;SDS011;8345;50.902;6.956;2022-10-16T05:01:57;2.40;;;1.60;;
16468;SDS011;8345;50.902;6.956;2022-10-16T05:04:24;3.03;;;1.70;;
16468;SDS011;8345;50.902;6.956;2022-10-16T05:06:51;2.07;;;1.70;;
16468;SDS011;8345;50.902;6.956;2022-10-16T05:09:18;2.17;;;1.30;;
16468;SDS011;8345;50.902;6.956;2022-10-16T05:11:47;1.30;;;1.20;;
16468;SDS011;8345;50.902;6.956;2022-10-16T05:14:14;1.50;;;1.40;;
16468;SDS011;8345;50.902;6.956;2022-10-16T05:16:41;2.10;;;1.40;;
16468;SDS011;8345;50.902;6.956;2022-10-16T05:19:08;2.80;;;1.30;;
16468;SDS011;8345;50.902;6.956;2022-10-16T05:21:36;1.00;;;0.90;;
16468;SDS011;8345;50.902;6.956;2022-10-16T05:24:03;2.53;;;1.30;;
16468;SDS011;8345;50.902;6.956;2022-10-16T05:26:30;1.70;;;1.20;;
16468;SDS011;8345;50.902;6.956;2022-10-16T05:28:58;2.60;;;1.17;;
16468;SDS011;8345;50.902;6.956;2022-10-16T05:31:26;3.27;;;1.27;;
16468;SDS011;8345;50.902;6.956;2022-10-16T05:33:57;1.20;;;1.10;;
16468;SDS011;8345;50.902;6.956;2022-10-16T05:36:24;1.90;;;1.30;;
16468;SDS011;8345;50.902;6.956;2022-10-16T05:38:51;3.80;;;1.40;;
16468;SDS011;8345;50.902;6.956;2022-10-16T05:41:18;3.73;;;1.50;;
16468;SDS011;8345;50.902;6.956;2022-10-16T05:43:46;2.57;;;1.10;;
16468;SDS011;8345;50.902;6.956;2022-10-16T05:46:15;1.50;;;1.40;;
16468;SDS011;8345;50.902;6.956;2022-10-16T05:48:42;3.53;;;1.67;;
16468;SDS011;8345;50.902;6.956;2022-10-16T05:51:10;2.50;;;1.77;;
16468;SDS011;8345;50.902;6.956;2022-10-16T05:53:38;2.33;;;1.50;;
16468;SDS011;8345;50.902;6.956;2022-10-16T05:56:07;1.93;;;1.60;;
16468;SDS011;8345;50.902;6.956;2022-10-16T05:58:35;1.60;;;1.30;;
16468;SDS011;8345;50.902;6.956;2022-10-16T06:01:03;2.95;;;1.50;;
16468;SDS011;8345;50.902;6.956;2022-10-16T06:03:32;2.87;;;1.37;;
16468;SDS011;8345;50.902;6.956;2022-10-16T06:05:59;3.57;;;1.50;;
16468;SDS011;8345;50.902;6.956;2022-10-16T06:08:26;1.33;;;1.17;;
16468;SDS011;8345;50.902;6.956;2022-10-16T06:11:00;3.03;;;1.90;;
16468;SDS011;8345;50.902;6.956;2022-10-16T06:13:28;1.50;;;1.40;;
16468;SDS011;8345;50.902;6.956;2022-10-16T06:15:56;2.03;;;1.87;;
16468;SDS011;8345;50.902;6.956;2022-10-16T06:18:24;2.80;;;1.63;;
16468;SDS011;8345;50.902;6.956;2022-10-16T06:20:52;4.10;;;1.63;;
16468;SDS011;8345;50.902;6.956;2022-10-16T06:23:19;1.60;;;1.50;;
16468;SDS011;8345;50.902;6.956;2022-10-16T06:25:47;2.87;;;1.70;;
16468;SDS011;8345;50.902;6.956;2022-10-16T06:28:14;3.03;;;1.50;;
16468;SDS011;8345;50.902;6.956;2022-10-16T06:30:41;1.83;;;1.30;;
16468;SDS011;8345;50.902;6.956;2022-10-16T06:33:09;3.30;;;1.77;;
16468;SDS011;8345;50.902;6.956;2022-10-16T06:35:36;3.33;;;1.60;;
16468;SDS011;8345;50.902;6.956;2022-10-16T06:38:05;1.70;;;1.60;;
16468;SDS011;8345;50.902;6.956;2022-10-16T06:40:32;2.23;;;1.60;;
16468;SDS011;8345;50.902;6.956;2022-10-16T06:42:59;3.03;;;1.77;;
16468;SDS011;8345;50.902;6.956;2022-10-16T06:45:26;2.10;;;1.60;;
16468;SDS011;8345;50.902;6.956;2022-10-16T06:47:53;2.60;;;2.03;;
16468;SDS011;8345;50.902;6.956;2022-10-16T06:50:20;3.37;;;1.90;;
16468;SDS011;8345;50.902;6.956;2022-10-16T06:52:48;2.97;;;1.70;;
16468;SDS011;8345;50.902;6.956;2022-10-16T06:55:17;2.70;;;1.90;;
16468;SDS011;8345;50.902;6.956;2022-10-16T06:57:46;2.33;;;2.10;;
16468;SDS011;8345;50.902;6.956;2022-10-16T07:00:14;2.20;;;1.90;;
16468;SDS011;8345;50.902;6.956;2022-10-16T07:02:41;3.40;;;2.27;;
16468;SDS011;8345;50.902;6.956;2022-10-16T07:05:08;2.83;;;2.00;;
16468;SDS011;8345;50.902;6.956;2022-10-16T07:07:35;3.73;;;2.03;;
16468;SDS011;8345;50.902;6.956;2022-10-16T07:10:03;6.23;;;2.13;;
16468;SDS011;8345;50.902;6.956;2022-10-16T07:12:31;5.13;;;1.83;;
16468;SDS011;8345;50.902;6.956;2022-10-16T07:14:59;3.57;;;2.17;;
16468;SDS011;8345;50.902;6.956;2022-10-16T07:17:26;3.23;;;2.13;;
16468;SDS011;8345;50.902;6.956;2022-10-16T07:19:53;2.87;;;1.90;;
16468;SDS011;8345;50.902;6.956;2022-10-16T07:22:20;2.03;;;1.87;;
16468;SDS011;8345;50.902;6.956;2022-10-16T07:24:47;2.87;;;1.80;;
16468;SDS011;8345;50.902;6.956;2022-10-16T07:27:15;2.27;;;1.97;;
16468;SDS011;8345;50.902;6.956;2022-10-16T07:29:43;2.20;;;2.00;;
16468;SDS011;8345;50.902;6.956;2022-10-16T07:32:11;2.10;;;1.90;;
16468;SDS011;8345;50.902;6.956;2022-10-16T07:34:38;2.70;;;1.83;;
16468;SDS011;8345;50.902;6.956;2022-10-16T07:37:05;2.10;;;1.90;;
16468;SDS011;8345;50.902;6.956;2022-10-16T07:39:32;2.20;;;1.77;;
16468;SDS011;8345;50.902;6.956;2022-10-16T07:41:59;2.63;;;2.17;;
16468;SDS011;8345;50.902;6.956;2022-10-16T07:44:27;2.23;;;2.03;;
16468;SDS011;8345;50.902;6.956;2022-10-16T07:46:55;2.40;;;1.93;;
16468;SDS011;8345;50.902;6.956;2022-10-16T07:49:23;1.93;;;1.73;;
16468;SDS011;8345;50.902;6.956;2022-10-16T07:51:50;2.73;;;1.90;;
16468;SDS011;8345;50.902;6.956;2022-10-16T07:54:17;1.83;;;1.70;;
16468;SDS011;8345;50.902;6.956;2022-10-16T07:56:44;3.07;;;1.80;;
16468;SDS011;8345;50.902;6.956;2022-10-16T07:59:12;2.30;;;2.10;;
16468;SDS011;8345;50.902;6.956;2022-10-16T08:01:39;2.87;;;1.93;;
16468;SDS011;8345;50.902;6.956;2022-10-16T08:04:09;2.90;;;1.93;;
16468;SDS011;8345;50.902;6.956;2022-10-16T08:06:37;2.10;;;1.80;;
16468;SDS011;8345;50.902;6.956;2022-10-16T08:09:04;2.80;;;2.60;;
16468;SDS011;8345;50.902;6.956;2022-10-16T08:11:32;6.33;;;2.40;;
16468;SDS011;8345;50.902;6.956;2022-10-16T08:13:59;2.60;;;1.90;;
16468;SDS011;8345;50.902;6.956;2022-10-16T08:16:26;2.57;;;1.43;;
16468;SDS011;8345;50.902;6.956;2022-10-16T08:18:53;3.40;;;1.97;;
16468;SDS011;8345;50.902;6.956;2022-10-16T08:21:22;4.10;;;1.73;;
16468;SDS011;8345;50.902;6.956;2022-10-16T08:23:49;2.00;;;1.80;;
16468;SDS011;8345;50.902;6.956;2022-10-16T08:26:17;4.40;;;3.00;;
16468;SDS011;8345;50.902;6.956;2022-10-16T08:28:44;2.67;;;1.93;;
16468;SDS011;8345;50.902;6.956;2022-10-16T08:31:12;5.00;;;2.77;;
16468;SDS011;8345;50.902;6.956;2022-10-16T08:33:40;3.00;;;1.80;;
16468;SDS011;8345;50.902;6.956;2022-10-16T08:36:08;6.90;;;6.20;;
16468;SDS011;8345;50.902;6.956;2022-10-16T08:38:37;4.47;;;3.87;;
16468;SDS011;8345;50.902;6.956;2022-10-16T08:41:13;3.33;;;2.33;;
16468;SDS011;8345;50.902;6.956;2022-10-16T08:43:45;2.97;;;1.73;;
16468;SDS011;8345;50.902;6.956;2022-10-16T08:46:21;1.57;;;1.30;;
16468;SDS011;8345;50.902;6.956;2022-10-16T08:48:50;3.67;;;1.93;;
16468;SDS011;8345;50.902;6.956;2022-10-16T08:51:19;3.00;;;1.37;;
16468;SDS011;8345;50.902;6.956;2022-10-16T08:53:51;3.17;;;1.80;;
16468;SDS011;8345;50.902;6.956;2022-10-16T08:56:18;7.47;;;2.07;;
16468;SDS011;8345;50.902;6.956;2022-10-16T08:58:46;3.60;;;2.10;;
16468;SDS011;8345;50.902;6.956;2022-10-16T09:01:14;3.53;;;2.10;;
16468;SDS011;8345;50.902;6.956;2022-10-16T09:03:45;3.37;;;1.60;;
16468;SDS011;8345;50.902;6.956;2022-10-16T09:06:24;2.33;;;1.40;;
16468;SDS011;8345;50.902;6.956;2022-10-16T09:08:58;5.40;;;3.20;;
16468;SDS011;8345;50.902;6.956;2022-10-16T09:11:31;4.67;;;2.97;;
16468;SDS011;8345;50.902;6.956;2022-10-16T09:14:06;3.67;;;1.93;;
16468;SDS011;8345;50.902;6.956;2022-10-16T09:16:38;1.13;;;1.10;;
16468;SDS011;8345;50.902;6.956;2022-10-16T09:19:09;2.37;;;0.90;;
16468;SDS011;8345;50.902;6.956;2022-10-16T09:21:39;4.40;;;1.70;;
16468;SDS011;8345;50.902;6.956;2022-10-16T09:24:10;5.27;;;1.30;;
16468;SDS011;8345;50.902;6.956;2022-10-16T09:26:38;1.50;;;1.40;;
16468;SDS011;8345;50.902;6.956;2022-10-16T09:29:06;2.23;;;1.20;;
16468;SDS011;8345;50.902;6.956;2022-10-16T09:31:35;2.27;;;1.40;;
16468;SDS011;8345;50.902;6.956;2022-10-16T09:34:03;1.60;;;1.50;;
16468;SDS011;8345;50.902;6.956;2022-10-16T09:36:32;1.50;;;1.30;;
16468;SDS011;8345;50.902;6.956;2022-10-16T09:39:03;1.53;;;1.03;;
16468;SDS011;8345;50.902;6.956;2022-10-16T09:41:33;1.27;;;1.17;;
16468;SDS011;8345;50.902;6.956;2022-10-16T09:44:01;2.53;;;0.97;;
16468;SDS011;8345;50.902;6.956;2022-10-16T09:46:29;0.77;;;0.77;;
16468;SDS011;8345;50.902;6.956;2022-10-16T09:48:58;1.17;;;1.00;;
16468;SDS011;8345;50.902;6.956;2022-10-16T09:51:26;1.13;;;0.90;;
16468;SDS011;8345;50.902;6.956;2022-10-16T09:53:55;2.33;;;1.20;;
16468;SDS011;8345;50.902;6.956;2022-10-16T09:56:23;1.47;;;0.97;;
16468;SDS011;8345;50.902;6.956;2022-10-16T09:58:52;2.03;;;1.00;;
16468;SDS011;8345;50.902;6.956;2022-10-16T10:01:20;2.33;;;0.90;;
16468;SDS011;8345;50.902;6.956;2022-10-16T10:03:48;1.27;;;0.80;;
16468;SDS011;8345;50.902;6.956;2022-10-16T10:06:19;1.03;;;0.80;;
16468;SDS011;8345;50.902;6.956;2022-10-16T10:08:55;1.37;;;0.90;;
16468;SDS011;8345;50.902;6.956;2022-10-16T10:14:25;1.90;;;1.10;;
16468;SDS011;8345;50.902;6.956;2022-10-16T10:17:01;2.00;;;1.13;;
16468;SDS011;8345;50.902;6.956;2022-10-16T10:19:29;0.70;;;0.70;;
16468;SDS011;8345;50.902;6.956;2022-10-16T10:21:56;1.80;;;0.80;;
16468;SDS011;8345;50.902;6.956;2022-10-16T10:24:23;1.10;;;0.70;;
16468;SDS011;8345;50.902;6.956;2022-10-16T10:26:52;1.87;;;1.03;;
16468;SDS011;8345;50.902;6.956;2022-10-16T10:29:36;2.70;;;1.00;;
16468;SDS011;8345;50.902;6.956;2022-10-16T10:32:12;0.73;;;0.70;;
16468;SDS011;8345;50.902;6.956;2022-10-16T10:34:51;3.23;;;0.80;;
16468;SDS011;8345;50.902;6.956;2022-10-16T10:37:24;1.07;;;0.80;;
16468;SDS011;8345;50.902;6.956;2022-10-16T10:39:56;1.00;;;0.90;;
16468;SDS011;8345;50.902;6.956;2022-10-16T10:42:28;1.37;;;1.00;;
16468;SDS011;8345;50.902;6.956;2022-10-16T10:45:08;3.10;;;0.80;;
16468;SDS011;8345;50.902;6.956;2022-10-16T10:47:40;1.53;;;0.90;;
16468;SDS011;8345;50.902;6.956;2022-10-16T10:50:12;1.10;;;0.90;;
16468;SDS011;8345;50.902;6.956;2022-10-16T10:52:48;0.93;;;0.80;;
16468;SDS011;8345;50.902;6.956;2022-10-16T10:55:19;2.10;;;1.07;;
16468;SDS011;8345;50.902;6.956;2022-10-16T10:57:56;0.90;;;0.77;;
16468;SDS011;8345;50.902;6.956;2022-10-16T11:00:28;2.20;;;0.80;;
16468;SDS011;8345;50.902;6.956;2022-10-16T11:02:59;1.00;;;0.60;;
16468;SDS011;8345;50.902;6.956;2022-10-16T11:08:18;1.07;;;0.67;;
16468;SDS011;8345;50.902;6.956;2022-10-16T11:10:48;1.97;;;0.77;;
16468;SDS011;8345;50.902;6.956;2022-10-16T11:13:19;1.23;;;0.83;;
16468;SDS011;8345;50.902;6.956;2022-10-16T11:15:50;1.20;;;1.00;;
16468;SDS011;8345;50.902;6.956;2022-10-16T11:18:18;2.17;;;0.80;;
16468;SDS011;8345;50.902;6.956;2022-10-16T11:20:49;1.27;;;0.70;;
16468;SDS011;8345;50.902;6.956;2022-10-16T11:23:18;1.20;;;1.00;;
16468;SDS011;8345;50.902;6.956;2022-10-16T11:25:48;1.33;;;0.70;;
16468;SDS011;8345;50.902;6.956;2022-10-16T11:28:17;1.83;;;0.93;;
16468;SDS011;8345;50.902;6.956;2022-10-16T11:30:47;3.07;;;0.83;;
16468;SDS011;8345;50.902;6.956;2022-10-16T11:33:24;1.73;;;0.93;;
16468;SDS011;8345;50.902;6.956;2022-10-16T11:35:53;0.70;;;0.70;;
16468;SDS011;8345;50.902;6.956;2022-10-16T11:38:24;0.70;;;0.70;;
16468;SDS011;8345;50.902;6.956;2022-10-16T11:40:53;1.43;;;0.90;;
16468;SDS011;8345;50.902;6.956;2022-10-16T11:43:24;1.03;;;0.77;;
16468;SDS011;8345;50.902;6.956;2022-10-16T11:45:54;1.67;;;0.70;;
16468;SDS011;8345;50.902;6.956;2022-10-16T11:48:25;0.90;;;0.80;;
16468;SDS011;8345;50.902;6.956;2022-10-16T11:50:53;2.10;;;0.70;;
16468;SDS011;8345;50.902;6.956;2022-10-16T11:53:23;1.73;;;0.70;;
16468;SDS011;8345;50.902;6.956;2022-10-16T11:55:51;1.47;;;0.80;;
16468;SDS011;8345;50.902;6.956;2022-10-16T11:58:21;1.57;;;0.80;;
16468;SDS011;8345;50.902;6.956;2022-10-16T12:00:52;1.03;;;0.50;;
16468;SDS011;8345;50.902;6.956;2022-10-16T12:03:21;0.87;;;0.80;;
16468;SDS011;8345;50.902;6.956;2022-10-16T12:05:55;1.77;;;0.70;;
16468;SDS011;8345;50.902;6.956;2022-10-16T12:08:25;0.70;;;0.57;;
16468;SDS011;8345;50.902;6.956;2022-10-16T12:10:53;0.83;;;0.63;;
16468;SDS011;8345;50.902;6.956;2022-10-16T12:13:28;0.73;;;0.70;;
16468;SDS011;8345;50.902;6.956;2022-10-16T12:16:03;0.60;;;0.60;;
16468;SDS011;8345;50.902;6.956;2022-10-16T12:18:30;1.43;;;0.73;;
16468;SDS011;8345;50.902;6.956;2022-10-16T12:20:59;2.93;;;0.80;;
16468;SDS011;8345;50.902;6.956;2022-10-16T12:23:31;3.27;;;0.90;;
16468;SDS011;8345;50.902;6.956;2022-10-16T12:25:59;1.53;;;0.80;;
16468;SDS011;8345;50.902;6.956;2022-10-16T12:28:28;2.10;;;0.70;;
16468;SDS011;8345;50.902;6.956;2022-10-16T12:30:56;1.83;;;0.70;;
16468;SDS011;8345;50.902;6.956;2022-10-16T12:33:25;1.87;;;0.80;;
16468;SDS011;8345;50.902;6.956;2022-10-16T12:35:52;1.50;;;0.73;;
16468;SDS011;8345;50.902;6.956;2022-10-16T12:38:21;1.27;;;0.60;;
16468;SDS011;8345;50.902;6.956;2022-10-16T12:40:56;0.90;;;0.67;;
16468;SDS011;8345;50.902;6.956;2022-10-16T12:43:26;1.63;;;0.70;;
16468;SDS011;8345;50.902;6.956;2022-10-16T12:46:04;1.47;;;0.80;;
16468;SDS011;8345;50.902;6.956;2022-10-16T12:48:31;1.60;;;0.77;;
16468;SDS011;8345;50.902;6.956;2022-10-16T12:51:09;1.47;;;0.90;;
16468;SDS011;8345;50.902;6.956;2022-10-16T12:53:37;0.50;;;0.50;;
16468;SDS011;8345;50.902;6.956;2022-10-16T12:56:09;2.37;;;1.00;;
16468;SDS011;8345;50.902;6.956;2022-10-16T12:58:44;2.97;;;1.07;;
16468;SDS011;8345;50.902;6.956;2022-10-16T13:01:17;1.17;;;0.73;;
16468;SDS011;8345;50.902;6.956;2022-10-16T13:03:59;0.87;;;0.60;;
16468;SDS011;8345;50.902;6.956;2022-10-16T13:06:33;0.60;;;0.60;;
16468;SDS011;8345;50.902;6.956;2022-10-16T13:09:15;1.23;;;0.60;;
16468;SDS011;8345;50.902;6.956;2022-10-16T13:11:52;1.10;;;0.87;;
16468;SDS011;8345;50.902;6.956;2022-10-16T13:14:30;1.03;;;0.70;;
16468;SDS011;8345;50.902;6.956;2022-10-16T13:17:02;0.80;;;0.60;;
16468;SDS011;8345;50.902;6.956;2022-10-16T13:19:33;1.57;;;0.70;;
16468;SDS011;8345;50.902;6.956;2022-10-16T13:22:05;1.70;;;0.60;;
16468;SDS011;8345;50.902;6.956;2022-10-16T13:27:21;1.10;;;0.70;;
16468;SDS011;8345;50.902;6.956;2022-10-16T13:29:52;1.10;;;0.70;;
16468;SDS011;8345;50.902;6.956;2022-10-16T13:32:20;1.17;;;0.70;;
16468;SDS011;8345;50.902;6.956;2022-10-16T13:34:48;1.47;;;0.90;;
16468;SDS011;8345;50.902;6.956;2022-10-16T13:37:17;1.57;;;1.07;;
16468;SDS011;8345;50.902;6.956;2022-10-16T13:39:44;1.70;;;1.23;;
16468;SDS011;8345;50.902;6.956;2022-10-16T13:42:12;0.87;;;0.87;;
16468;SDS011;8345;50.902;6.956;2022-10-16T13:44:42;1.10;;;0.90;;
16468;SDS011;8345;50.902;6.956;2022-10-16T13:47:14;1.17;;;0.90;;
16468;SDS011;8345;50.902;6.956;2022-10-16T13:49:42;0.60;;;0.60;;
16468;SDS011;8345;50.902;6.956;2022-10-16T13:52:15;1.43;;;0.70;;
16468;SDS011;8345;50.902;6.956;2022-10-16T13:54:43;1.27;;;0.80;;
16468;SDS011;8345;50.902;6.956;2022-10-16T13:57:12;1.77;;;0.70;;
16468;SDS011;8345;50.902;6.956;2022-10-16T13:59:39;1.80;;;0.70;;
16468;SDS011;8345;50.902;6.956;2022-10-16T14:02:14;0.90;;;0.60;;
16468;SDS011;8345;50.902;6.956;2022-10-16T14:04:44;1.47;;;0.80;;
16468;SDS011;8345;50.902;6.956;2022-10-16T14:07:13;2.63;;;0.93;;
16468;SDS011;8345;50.902;6.956;2022-10-16T14:09:41;0.77;;;0.70;;
16468;SDS011;8345;50.902;6.956;2022-10-16T14:12:08;1.07;;;0.77;;
16468;SDS011;8345;50.902;6.956;2022-10-16T14:14:40;1.73;;;0.80;;
16468;SDS011;8345;50.902;6.956;2022-10-16T14:17:14;0.70;;;0.70;;
16468;SDS011;8345;50.902;6.956;2022-10-16T14:19:44;1.63;;;0.80;;
16468;SDS011;8345;50.902;6.956;2022-10-16T14:22:21;1.30;;;1.03;;
16468;SDS011;8345;50.902;6.956;2022-10-16T14:24:49;1.60;;;0.67;;
16468;SDS011;8345;50.902;6.956;2022-10-16T14:27:27;2.23;;;0.67;;
16468;SDS011;8345;50.902;6.956;2022-10-16T14:30:05;2.10;;;0.80;;
16468;SDS011;8345;50.902;6.956;2022-10-16T14:32:36;1.00;;;0.90;;
16468;SDS011;8345;50.902;6.956;2022-10-16T14:35:04;1.63;;;0.60;;
16468;SDS011;8345;50.902;6.956;2022-10-16T14:37:31;1.10;;;0.60;;
16468;SDS011;8345;50.902;6.956;2022-10-16T14:39:58;0.70;;;0.70;;
16468;SDS011;8345;50.902;6.956;2022-10-16T14:42:26;1.90;;;0.80;;
16468;SDS011;8345;50.902;6.956;2022-10-16T14:44:53;2.33;;;0.97;;
16468;SDS011;8345;50.902;6.956;2022-10-16T14:47:22;1.00;;;0.90;;
16468;SDS011;8345;50.902;6.956;2022-10-16T14:49:53;0.77;;;0.77;;
16468;SDS011;8345;50.902;6.956;2022-10-16T14:52:22;0.73;;;0.73;;
16468;SDS011;8345;50.902;6.956;2022-10-16T14:54:50;1.33;;;1.13;;
16468;SDS011;8345;50.902;6.956;2022-10-16T14:57:20;2.00;;;1.10;;
16468;SDS011;8345;50.902;6.956;2022-10-16T14:59:49;1.43;;;0.90;;
16468;SDS011;8345;50.902;6.956;2022-10-16T15:02:18;1.27;;;0.77;;
16468;SDS011;8345;50.902;6.956;2022-10-16T15:04:47;2.33;;;0.90;;
16468;SDS011;8345;50.902;6.956;2022-10-16T15:07:16;0.93;;;0.90;;
16468;SDS011;8345;50.902;6.956;2022-10-16T15:09:43;1.60;;;1.10;;
16468;SDS011;8345;50.902;6.956;2022-10-16T15:12:10;2.47;;;0.93;;
16468;SDS011;8345;50.902;6.956;2022-10-16T15:14:37;1.00;;;0.90;;
16468;SDS011;8345;50.902;6.956;2022-10-16T15:17:05;1.00;;;0.90;;
16468;SDS011;8345;50.902;6.956;2022-10-16T15:19:32;2.27;;;1.13;;
16468;SDS011;8345;50.902;6.956;2022-10-16T15:21:59;3.10;;;0.77;;